createdAt,value
2019-02-14T00:01:31.685Z,21.50
2019-02-14T00:03:57.610Z,21.50
2019-02-14T00:06:23.570Z,21.50
2019-02-14T00:08:49.525Z,21.50
2019-02-14T00:11:15.466Z,21.40
2019-02-14T00:13:41.411Z,21.40
2019-02-14T00:16:07.367Z,21.40
2019-02-14T00:18:33.314Z,21.40
2019-02-14T00:20:59.265Z,21.40
2019-02-14T00:23:25.210Z,21.30
2019-02-14T00:25:51.168Z,21.30
2019-02-14T00:28:17.165Z,21.30
2019-02-14T00:30:43.200Z,21.30
2019-02-14T00:33:09.151Z,21.30
2019-02-14T00:35:35.186Z,21.20
2019-02-14T00:38:01.910Z,21.20
2019-02-14T00:40:27.883Z,21.20
2019-02-14T00:42:53.834Z,21.20
2019-02-14T00:45:19.844Z,21.10
2019-02-14T00:47:45.887Z,21.10
2019-02-14T00:50:11.855Z,21.10
2019-02-14T00:52:37.911Z,21.10
2019-02-14T00:55:03.882Z,21.10
2019-02-14T00:57:29.850Z,21.10
2019-02-14T00:59:55.800Z,21.10
2019-02-14T01:02:21.753Z,21.10
2019-02-14T01:04:47.702Z,21.10
2019-02-14T01:07:13.645Z,21.10
2019-02-14T01:09:39.586Z,21.00
2019-02-14T01:12:06.244Z,21.00
2019-02-14T01:14:32.186Z,21.00
2019-02-14T01:16:58.138Z,21.00
2019-02-14T01:19:24.102Z,21.00
2019-02-14T01:21:50.076Z,21.00
2019-02-14T01:24:16.044Z,21.00
2019-02-14T01:26:42.082Z,21.00
2019-02-14T01:29:08.036Z,20.90
2019-02-14T01:31:34.108Z,20.90
2019-02-14T01:34:00.100Z,20.90
2019-02-14T01:36:26.153Z,20.90
2019-02-14T01:38:52.094Z,20.90
2019-02-14T01:41:18.070Z,20.90
2019-02-14T01:43:44.014Z,20.90
2019-02-14T01:46:09.988Z,20.80
2019-02-14T01:48:35.937Z,20.80
2019-02-14T01:51:01.892Z,20.90
2019-02-14T01:53:27.838Z,20.80
2019-02-14T01:55:53.791Z,20.80
2019-02-14T01:58:19.757Z,20.80
2019-02-14T02:00:45.713Z,20.80
2019-02-14T02:03:11.767Z,20.70
2019-02-14T02:05:37.707Z,20.70
2019-02-14T02:08:03.652Z,20.70
2019-02-14T02:10:29.618Z,20.70
2019-02-14T02:12:55.564Z,20.70
2019-02-14T02:15:21.535Z,20.70
2019-02-14T02:17:47.500Z,20.70
2019-02-14T02:20:13.482Z,20.70
2019-02-14T02:22:39.432Z,20.70
2019-02-14T02:25:05.576Z,20.70
2019-02-14T02:27:31.505Z,20.70
2019-02-14T02:29:57.455Z,20.60
2019-02-14T02:32:23.387Z,20.60
2019-02-14T02:34:49.381Z,20.60
2019-02-14T02:37:15.409Z,20.60
2019-02-14T02:39:41.357Z,20.60
2019-02-14T02:42:07.415Z,20.60
2019-02-14T02:44:33.378Z,20.60
2019-02-14T02:46:59.338Z,20.60
2019-02-14T02:49:25.314Z,20.60
2019-02-14T02:51:51.269Z,20.50
2019-02-14T02:54:17.331Z,20.50
2019-02-14T02:56:43.296Z,20.50
2019-02-14T02:59:09.281Z,20.50
2019-02-14T03:01:35.319Z,20.50
2019-02-14T03:04:01.316Z,20.50
2019-02-14T03:06:27.286Z,20.50
2019-02-14T03:08:53.234Z,20.50
2019-02-14T03:11:19.180Z,20.50
2019-02-14T03:13:45.142Z,20.40
2019-02-14T03:16:11.356Z,20.50
2019-02-14T03:18:37.391Z,20.40
2019-02-14T03:21:03.363Z,20.40
2019-02-14T03:23:29.317Z,20.40
2019-02-14T03:25:55.307Z,20.40
2019-02-14T03:28:25.143Z,20.40
2019-02-14T03:30:51.626Z,20.40
2019-02-14T03:33:18.016Z,20.40
2019-02-14T03:35:44.084Z,20.40
2019-02-14T03:38:10.051Z,20.40
2019-02-14T03:40:36.111Z,20.40
2019-02-14T03:43:02.102Z,20.40
2019-02-14T03:45:28.145Z,20.40
2019-02-14T03:47:54.105Z,20.30
2019-02-14T03:50:20.073Z,20.40
2019-02-14T03:52:46.041Z,20.30
2019-02-14T03:55:12.001Z,20.30
2019-02-14T03:57:37.991Z,20.30
2019-02-14T04:00:04.563Z,20.30
2019-02-14T04:02:33.109Z,20.30
2019-02-14T04:04:59.991Z,20.30
2019-02-14T04:07:26.027Z,20.50
2019-02-14T04:09:52.009Z,20.20
2019-02-14T04:12:18.079Z,20.20
2019-02-14T04:14:44.212Z,20.30
2019-02-14T04:17:10.537Z,20.20
2019-02-14T04:19:36.653Z,20.20
2019-02-14T04:22:02.760Z,20.20
2019-02-14T04:24:29.046Z,20.20
2019-02-14T04:26:55.119Z,20.20
2019-02-14T04:29:21.312Z,20.20
2019-02-14T04:31:47.396Z,20.20
2019-02-14T04:34:13.386Z,20.20
2019-02-14T04:36:39.597Z,20.20
2019-02-14T04:39:05.587Z,20.10
2019-02-14T04:41:31.621Z,20.10
2019-02-14T04:43:57.833Z,20.20
2019-02-14T04:46:23.919Z,20.20
2019-02-14T04:48:51.519Z,20.10
2019-02-14T04:51:17.540Z,20.10
2019-02-14T04:53:44.590Z,20.10
2019-02-14T04:56:10.572Z,20.10
2019-02-14T04:58:36.506Z,20.10
2019-02-14T05:01:02.445Z,20.10
2019-02-14T05:03:28.471Z,20.10
2019-02-14T05:05:54.515Z,20.10
2019-02-14T05:08:20.457Z,20.10
2019-02-14T05:10:46.422Z,20.10
2019-02-14T05:13:12.487Z,20.10
2019-02-14T05:15:38.456Z,20.10
2019-02-14T05:18:04.405Z,20.10
2019-02-14T05:20:30.366Z,20.10
2019-02-14T05:22:56.332Z,20.10
2019-02-14T05:25:22.361Z,20.10
2019-02-14T05:27:48.347Z,20.20
2019-02-14T05:30:14.424Z,20.20
2019-02-14T05:32:40.415Z,20.10
2019-02-14T05:35:06.456Z,20.20
2019-02-14T05:37:32.400Z,20.20
2019-02-14T05:39:58.372Z,20.20
2019-02-14T05:42:25.159Z,20.20
2019-02-14T05:44:51.267Z,20.20
2019-02-14T05:47:17.197Z,20.20
2019-02-14T05:49:43.181Z,20.20
2019-02-14T05:52:09.140Z,20.20
2019-02-14T05:54:35.116Z,20.20
2019-02-14T05:57:01.072Z,20.20
2019-02-14T05:59:27.073Z,20.30
2019-02-14T06:01:53.156Z,20.30
2019-02-14T06:04:19.121Z,20.30
2019-02-14T06:06:45.092Z,20.30
2019-02-14T06:09:11.062Z,20.30
2019-02-14T06:11:36.995Z,20.30
2019-02-14T06:14:02.944Z,20.30
2019-02-14T06:16:28.891Z,20.30
2019-02-14T06:18:54.846Z,20.30
2019-02-14T06:21:20.915Z,20.30
2019-02-14T06:23:46.889Z,20.30
2019-02-14T06:26:12.932Z,20.30
2019-02-14T06:28:38.866Z,20.30
2019-02-14T06:31:04.834Z,20.30
2019-02-14T06:33:30.792Z,20.30
2019-02-14T06:35:56.750Z,20.30
2019-02-14T06:38:22.880Z,20.30
2019-02-14T06:40:48.833Z,20.30
2019-02-14T06:43:14.892Z,20.30
2019-02-14T06:45:40.833Z,20.30
2019-02-14T06:48:07.216Z,20.30
2019-02-14T06:50:34.981Z,20.30
2019-02-14T06:53:01.146Z,20.30
2019-02-14T06:55:27.085Z,20.20
2019-02-14T06:57:53.014Z,20.20
2019-02-14T07:00:18.958Z,20.30
2019-02-14T07:02:44.903Z,20.30
2019-02-14T07:05:10.857Z,20.30
2019-02-14T07:07:36.814Z,20.20
2019-02-14T07:10:02.788Z,20.20
2019-02-14T07:12:28.775Z,20.20
2019-02-14T07:14:54.863Z,20.20
2019-02-14T07:17:20.909Z,20.20
2019-02-14T07:19:46.885Z,20.20
2019-02-14T07:22:12.814Z,20.20
2019-02-14T07:24:38.776Z,20.20
2019-02-14T07:27:04.727Z,20.20
2019-02-14T07:29:30.697Z,20.20
2019-02-14T07:31:56.686Z,20.20
2019-02-14T07:34:22.614Z,20.10
2019-02-14T07:36:48.558Z,20.20
2019-02-14T07:39:14.519Z,20.10
2019-02-14T07:41:40.464Z,20.00
2019-02-14T07:44:06.436Z,20.00
2019-02-14T07:46:32.725Z,20.00
2019-02-14T07:48:58.683Z,20.00
2019-02-14T07:51:24.881Z,20.00
2019-02-14T07:53:50.935Z,20.00
2019-02-14T07:56:16.935Z,20.10
2019-02-14T07:58:42.974Z,20.10
2019-02-14T08:01:08.906Z,20.20
2019-02-14T08:03:34.848Z,20.20
2019-02-14T08:06:00.784Z,20.20
2019-02-14T08:08:26.734Z,20.30
2019-02-14T08:10:52.667Z,20.30
2019-02-14T08:13:18.662Z,20.40
2019-02-14T08:15:44.640Z,20.40
2019-02-14T08:18:11.175Z,20.50
2019-02-14T08:20:37.126Z,20.60
2019-02-14T08:23:03.077Z,20.60
2019-02-14T08:25:29.040Z,20.70
2019-02-14T08:27:54.987Z,20.80
2019-02-14T08:30:20.935Z,20.80
2019-02-14T08:32:46.867Z,20.90
2019-02-14T08:35:12.857Z,21.00
2019-02-14T08:37:45.022Z,21.00
2019-02-14T08:40:06.770Z,21.10
2019-02-14T08:42:32.799Z,21.10
2019-02-14T08:44:58.743Z,21.10
2019-02-14T08:47:24.706Z,21.20
2019-02-14T08:49:50.665Z,21.20
2019-02-14T08:52:16.622Z,21.30
2019-02-14T08:54:42.598Z,21.40
2019-02-14T08:57:08.565Z,21.50
2019-02-14T08:59:34.610Z,21.50
2019-02-14T09:02:00.599Z,21.50
2019-02-14T09:04:26.658Z,21.50
2019-02-14T09:06:52.624Z,21.60
2019-02-14T09:09:18.568Z,21.60
2019-02-14T09:11:44.532Z,21.60
2019-02-14T09:14:10.499Z,21.60
2019-02-14T09:16:36.475Z,21.60
2019-02-14T09:19:02.423Z,21.50
2019-02-14T09:21:28.413Z,21.50
2019-02-14T09:23:54.530Z,21.50
2019-02-14T09:26:20.509Z,21.50
2019-02-14T09:28:46.462Z,21.60
2019-02-14T09:31:12.435Z,21.60
2019-02-14T09:33:38.423Z,21.70
2019-02-14T09:36:04.373Z,21.70
2019-02-14T09:38:30.346Z,21.80
2019-02-14T09:40:56.280Z,21.80
2019-02-14T09:43:29.568Z,21.80
2019-02-14T09:45:50.094Z,21.90
2019-02-14T09:48:16.154Z,21.90
2019-02-14T09:50:42.116Z,21.90
2019-02-14T09:53:08.065Z,22.00
2019-02-14T09:55:34.978Z,22.00
2019-02-14T09:58:01.278Z,22.00
2019-02-14T10:00:27.304Z,22.00
2019-02-14T10:02:53.273Z,22.10
2019-02-14T10:05:19.301Z,22.10
2019-02-14T10:07:45.255Z,22.10
2019-02-14T10:10:11.220Z,22.10
2019-02-14T10:12:37.168Z,22.20
2019-02-14T10:15:03.114Z,22.20
2019-02-14T10:17:29.088Z,22.20
2019-02-14T10:19:55.034Z,22.20
2019-02-14T10:22:20.974Z,22.20
2019-02-14T10:24:46.940Z,22.30
2019-02-14T10:27:12.906Z,22.30
2019-02-14T10:29:39.010Z,22.30
2019-02-14T10:32:05.188Z,22.30
2019-02-14T10:34:31.235Z,22.30
2019-02-14T10:36:57.188Z,22.40
2019-02-14T10:39:23.136Z,22.30
2019-02-14T10:41:49.098Z,22.40
2019-02-14T10:44:15.070Z,22.30
2019-02-14T10:46:41.030Z,22.30
2019-02-14T10:49:06.987Z,22.30
2019-02-14T10:51:32.962Z,22.20
2019-02-14T10:53:58.899Z,22.20
2019-02-14T10:56:24.856Z,22.20
2019-02-14T10:58:50.796Z,22.20
2019-02-14T11:01:16.746Z,22.20
2019-02-14T11:03:42.741Z,22.30
2019-02-14T11:06:08.931Z,22.30
2019-02-14T11:08:35.613Z,22.30
2019-02-14T11:11:01.579Z,22.40
2019-02-14T11:13:27.522Z,22.40
2019-02-14T11:15:53.512Z,22.50
2019-02-14T11:18:26.787Z,22.50
2019-02-14T11:20:52.716Z,22.60
2019-02-14T11:23:18.681Z,22.60
2019-02-14T11:25:44.636Z,22.60
2019-02-14T11:28:10.612Z,22.60
2019-02-14T11:30:36.673Z,22.70
2019-02-14T11:33:02.648Z,22.70
2019-02-14T11:35:28.606Z,22.70
2019-02-14T11:37:54.678Z,22.80
2019-02-14T11:40:20.759Z,22.90
2019-02-14T11:42:46.801Z,22.80
2019-02-14T11:45:12.751Z,22.90
2019-02-14T11:47:38.718Z,22.90
2019-02-14T11:50:06.562Z,23.00
2019-02-14T11:52:32.572Z,23.00
2019-02-14T11:54:58.530Z,23.00
2019-02-14T11:57:24.502Z,23.00
2019-02-14T11:59:50.495Z,22.90
2019-02-14T12:02:16.526Z,22.90
2019-02-14T12:04:42.641Z,22.90
2019-02-14T12:07:08.618Z,22.90
2019-02-14T12:09:34.677Z,22.90
2019-02-14T12:12:00.602Z,23.00
2019-02-14T12:14:26.580Z,23.00
2019-02-14T12:16:52.514Z,23.10
2019-02-14T12:19:18.453Z,23.10
2019-02-14T12:21:44.385Z,23.20
2019-02-14T12:24:10.358Z,23.20
2019-02-14T12:26:36.319Z,23.20
2019-02-14T12:29:02.251Z,23.20
2019-02-14T12:31:28.188Z,23.20
2019-02-14T12:33:54.161Z,23.30
2019-02-14T12:36:20.239Z,23.30
2019-02-14T12:38:46.247Z,23.30
2019-02-14T12:41:12.206Z,23.30
2019-02-14T12:43:38.159Z,23.30
2019-02-14T12:46:04.111Z,23.40
2019-02-14T12:48:30.072Z,23.30
2019-02-14T12:50:56.009Z,23.30
2019-02-14T12:53:21.980Z,23.30
2019-02-14T12:55:47.936Z,23.30
2019-02-14T12:58:16.974Z,23.30
2019-02-14T13:00:42.920Z,23.40
2019-02-14T13:03:08.887Z,23.30
2019-02-14T13:05:34.867Z,23.40
2019-02-14T13:08:06.701Z,23.30
2019-02-14T13:10:32.670Z,23.30
2019-02-14T13:12:58.748Z,23.40
2019-02-14T13:15:24.792Z,23.40
2019-02-14T13:17:50.766Z,23.40
2019-02-14T13:20:16.737Z,23.40
2019-02-14T13:22:42.672Z,23.40
2019-02-14T13:25:08.959Z,23.40
2019-02-14T13:27:35.011Z,23.40
2019-02-14T13:30:01.011Z,23.30
2019-02-14T13:32:27.075Z,23.30
2019-02-14T13:34:53.157Z,23.30
2019-02-14T13:37:19.112Z,23.30
2019-02-14T13:39:45.106Z,23.20
2019-02-14T13:42:11.144Z,23.20
2019-02-14T13:44:37.122Z,23.30
2019-02-14T13:47:03.100Z,23.30
2019-02-14T13:49:29.173Z,23.30
2019-02-14T13:51:55.142Z,23.40
2019-02-14T13:54:21.123Z,23.40
2019-02-14T13:56:53.984Z,23.50
2019-02-14T13:59:14.930Z,23.50
2019-02-14T14:01:40.872Z,23.50
2019-02-14T14:04:06.812Z,23.50
2019-02-14T14:06:32.750Z,23.50
2019-02-14T14:08:58.792Z,23.50
2019-02-14T14:11:24.844Z,23.50
2019-02-14T14:13:50.783Z,23.50
2019-02-14T14:16:16.731Z,23.50
2019-02-14T14:18:42.665Z,23.60
2019-02-14T14:21:08.606Z,23.60
2019-02-14T14:23:34.535Z,23.60
2019-02-14T14:26:00.507Z,23.60
2019-02-14T14:28:27.166Z,23.60
2019-02-14T14:30:53.156Z,23.60
2019-02-14T14:33:19.114Z,23.60
2019-02-14T14:35:45.071Z,23.60
2019-02-14T14:38:11.632Z,23.60
2019-02-14T14:40:37.703Z,23.70
2019-02-14T14:43:17.627Z,23.60
2019-02-14T14:45:54.668Z,23.60
2019-02-14T14:48:30.086Z,23.60
2019-02-14T14:50:56.065Z,23.70
2019-02-14T14:53:22.090Z,23.60
2019-02-14T14:55:48.066Z,23.70
2019-02-14T14:58:14.220Z,23.60
2019-02-14T15:00:40.194Z,23.60
2019-02-14T15:03:06.164Z,23.50
2019-02-14T15:05:32.089Z,23.40
2019-02-14T15:07:58.441Z,23.40
2019-02-14T15:10:24.378Z,23.40
2019-02-14T15:12:50.341Z,23.40
2019-02-14T15:15:16.314Z,23.50
2019-02-14T15:17:42.289Z,23.40
2019-02-14T15:20:08.257Z,23.50
2019-02-14T15:22:34.338Z,23.50
2019-02-14T15:25:00.410Z,23.50
2019-02-14T15:27:26.375Z,23.50
2019-02-14T15:29:52.338Z,23.50
2019-02-14T15:32:20.411Z,23.50
2019-02-14T15:34:46.450Z,23.50
2019-02-14T15:37:13.358Z,23.50
2019-02-14T15:39:40.531Z,23.60
2019-02-14T15:42:06.541Z,23.60
2019-02-14T15:44:32.632Z,23.60
2019-02-14T15:46:58.601Z,23.60
2019-02-14T15:49:25.395Z,23.60
2019-02-14T15:51:51.721Z,23.60
2019-02-14T15:54:17.692Z,23.60
2019-02-14T15:56:43.666Z,23.60
2019-02-14T15:59:09.597Z,23.60
2019-02-14T16:01:35.533Z,23.70
2019-02-14T16:04:02.507Z,23.60
2019-02-14T16:06:30.328Z,23.60
2019-02-14T16:08:56.523Z,23.60
2019-02-14T16:11:22.600Z,23.60
2019-02-14T16:13:48.571Z,23.60
2019-02-14T16:16:14.547Z,23.50
2019-02-14T16:18:40.575Z,23.40
2019-02-14T16:21:07.893Z,23.40
2019-02-14T16:23:34.349Z,23.30
2019-02-14T16:26:00.445Z,23.30
2019-02-14T16:28:27.025Z,23.20
2019-02-14T16:30:56.293Z,23.20
2019-02-14T16:33:23.482Z,23.20
2019-02-14T16:35:48.853Z,23.20
2019-02-14T16:38:14.899Z,23.20
2019-02-14T16:40:40.976Z,23.10
2019-02-14T16:43:06.970Z,23.20
2019-02-14T16:45:32.991Z,23.10
2019-02-14T16:47:58.921Z,23.10
2019-02-14T16:50:24.887Z,23.10
2019-02-14T16:52:51.092Z,23.10
2019-02-14T16:55:17.179Z,23.10
2019-02-14T16:57:43.247Z,23.10
2019-02-14T17:00:09.214Z,23.10
2019-02-14T17:02:35.164Z,23.10
2019-02-14T17:05:01.133Z,23.10
2019-02-14T17:07:27.089Z,23.10
2019-02-14T17:09:53.063Z,23.10
2019-02-14T17:12:19.014Z,23.20
2019-02-14T17:14:44.965Z,23.20
2019-02-14T17:17:10.929Z,23.20
2019-02-14T17:19:36.882Z,23.20
2019-02-14T17:22:02.851Z,23.20
2019-02-14T17:24:28.886Z,23.20
2019-02-14T17:26:54.938Z,23.20
2019-02-14T17:29:20.873Z,23.20
2019-02-14T17:31:46.817Z,23.20
2019-02-14T17:34:12.782Z,23.20
2019-02-14T17:36:38.752Z,23.20
2019-02-14T17:39:04.709Z,23.20
2019-02-14T17:41:30.745Z,23.20
2019-02-14T17:43:56.722Z,23.20
2019-02-14T17:46:22.777Z,23.20
2019-02-14T17:48:48.707Z,23.20
2019-02-14T17:51:14.673Z,23.20
2019-02-14T17:53:40.727Z,23.20
2019-02-14T17:56:06.683Z,23.20
2019-02-14T17:58:32.689Z,23.20
2019-02-14T18:00:58.703Z,23.20
2019-02-14T18:03:24.673Z,23.20
2019-02-14T18:05:50.632Z,23.30
2019-02-14T18:08:16.610Z,23.30
2019-02-14T18:10:42.669Z,23.20
2019-02-14T18:13:08.734Z,23.20
2019-02-14T18:15:34.797Z,23.20
2019-02-14T18:18:01.465Z,23.10
2019-02-14T18:20:27.513Z,23.10
2019-02-14T18:22:53.486Z,23.10
2019-02-14T18:25:19.541Z,23.10
2019-02-14T18:27:45.583Z,23.10
2019-02-14T18:30:11.578Z,23.10
2019-02-14T18:32:37.548Z,23.20
2019-02-14T18:35:03.509Z,23.20
2019-02-14T18:37:29.467Z,23.20
2019-02-14T18:39:55.502Z,23.20
2019-02-14T18:42:21.466Z,23.20
2019-02-14T18:44:47.508Z,23.30
2019-02-14T18:47:13.631Z,23.20
2019-02-14T18:49:39.691Z,23.20
2019-02-14T18:52:05.779Z,23.20
2019-02-14T18:54:31.824Z,23.10
2019-02-14T18:56:57.798Z,23.10
2019-02-14T18:59:23.770Z,23.00
2019-02-14T19:01:49.763Z,23.00
2019-02-14T19:04:15.707Z,22.90
2019-02-14T19:06:41.664Z,22.90
2019-02-14T19:09:07.732Z,22.80
2019-02-14T19:11:33.782Z,22.80
2019-02-14T19:13:59.823Z,22.80
2019-02-14T19:16:25.769Z,22.80
2019-02-14T19:18:51.821Z,22.90
2019-02-14T19:21:17.894Z,22.90
2019-02-14T19:23:43.933Z,23.00
2019-02-14T19:26:10.042Z,23.00
2019-02-14T19:28:36.118Z,23.00
2019-02-14T19:31:02.175Z,23.10
2019-02-14T19:33:28.216Z,23.10
2019-02-14T19:35:54.192Z,23.10
2019-02-14T19:38:20.282Z,23.10
2019-02-14T19:40:46.236Z,23.10
2019-02-14T19:43:12.274Z,23.20
2019-02-14T19:45:38.261Z,23.20
2019-02-14T19:48:04.225Z,23.20
2019-02-14T19:50:30.196Z,23.20
2019-02-14T19:52:56.156Z,23.20
2019-02-14T19:55:22.152Z,23.20
2019-02-14T19:57:48.656Z,23.10
2019-02-14T20:00:14.759Z,23.10
2019-02-14T20:02:40.869Z,23.00
2019-02-14T20:05:06.886Z,23.00
2019-02-14T20:07:32.911Z,23.00
2019-02-14T20:09:58.872Z,23.10
2019-02-14T20:12:24.830Z,23.10
2019-02-14T20:14:50.802Z,23.10
2019-02-14T20:17:16.733Z,23.20
2019-02-14T20:19:42.787Z,23.20
2019-02-14T20:22:08.777Z,23.20
2019-02-14T20:24:34.769Z,23.20
2019-02-14T20:27:00.796Z,23.30
2019-02-14T20:29:26.762Z,23.30
2019-02-14T20:31:52.724Z,23.30
2019-02-14T20:34:18.681Z,23.30
2019-02-14T20:36:44.639Z,23.30
2019-02-14T20:39:10.596Z,23.40
2019-02-14T20:41:45.115Z,23.40
2019-02-14T20:44:04.554Z,23.40
2019-02-14T20:46:30.500Z,23.40
2019-02-14T20:48:56.442Z,23.40
2019-02-14T20:51:22.444Z,23.40
2019-02-14T20:53:48.471Z,23.40
2019-02-14T20:56:14.412Z,23.30
2019-02-14T20:58:40.384Z,23.30
2019-02-14T21:01:08.227Z,23.30
2019-02-14T21:03:34.278Z,23.20
2019-02-14T21:06:00.223Z,23.30
2019-02-14T21:08:28.868Z,23.30
2019-02-14T21:10:54.810Z,23.20
2019-02-14T21:13:20.777Z,23.20
2019-02-14T21:15:46.739Z,23.10
2019-02-14T21:18:14.648Z,23.10
2019-02-14T21:20:40.627Z,23.10
2019-02-14T21:23:06.799Z,23.00
2019-02-14T21:25:32.845Z,23.00
2019-02-14T21:27:58.920Z,23.00
2019-02-14T21:30:24.898Z,22.90
2019-02-14T21:32:51.237Z,22.90
2019-02-14T21:35:17.222Z,22.90
2019-02-14T21:37:43.288Z,22.80
2019-02-14T21:40:09.353Z,22.80
2019-02-14T21:42:35.388Z,22.80
2019-02-14T21:45:01.377Z,22.80
2019-02-14T21:47:27.556Z,22.70
2019-02-14T21:49:53.573Z,22.70
2019-02-14T21:52:19.553Z,22.70
2019-02-14T21:54:45.591Z,22.70
2019-02-14T21:57:11.640Z,22.70
2019-02-14T21:59:37.579Z,22.60
2019-02-14T22:02:06.291Z,22.60
2019-02-14T22:04:32.505Z,22.60
2019-02-14T22:06:58.533Z,22.60
2019-02-14T22:09:24.478Z,22.50
2019-02-14T22:11:50.464Z,22.50
2019-02-14T22:14:16.541Z,22.50
2019-02-14T22:16:42.601Z,22.40
2019-02-14T22:19:08.567Z,22.40
2019-02-14T22:21:34.545Z,22.40
2019-02-14T22:24:00.484Z,22.30
2019-02-14T22:26:26.439Z,22.30
2019-02-14T22:28:52.409Z,22.30
2019-02-14T22:31:18.467Z,22.20
2019-02-14T22:33:44.486Z,22.20
2019-02-14T22:36:10.669Z,22.10
2019-02-14T22:38:36.632Z,22.10
2019-02-14T22:41:02.577Z,22.10
2019-02-14T22:43:28.525Z,22.10
2019-02-14T22:45:54.461Z,22.00
2019-02-14T22:48:20.414Z,22.00
2019-02-14T22:50:46.358Z,22.00
2019-02-14T22:53:12.316Z,22.00
2019-02-14T22:55:38.271Z,21.90
2019-02-14T22:58:04.969Z,21.90
2019-02-14T23:00:32.907Z,21.90
2019-02-14T23:02:58.859Z,21.90
2019-02-14T23:05:24.820Z,21.80
2019-02-14T23:07:50.774Z,21.80
2019-02-14T23:10:16.717Z,21.80
2019-02-14T23:12:42.672Z,21.80
2019-02-14T23:15:08.665Z,21.80
2019-02-14T23:17:34.612Z,21.70
2019-02-14T23:20:00.578Z,21.70
2019-02-14T23:22:26.536Z,21.70
2019-02-14T23:24:52.588Z,21.70
2019-02-14T23:27:18.557Z,21.60
2019-02-14T23:29:44.527Z,21.60
2019-02-14T23:32:10.452Z,21.60
2019-02-14T23:34:36.411Z,21.60
2019-02-14T23:37:02.477Z,21.60
2019-02-14T23:39:28.494Z,21.60
2019-02-14T23:41:54.516Z,21.50
2019-02-14T23:44:20.458Z,21.50
2019-02-14T23:46:46.409Z,21.50
2019-02-14T23:49:12.384Z,21.50
2019-02-14T23:51:38.338Z,21.50
2019-02-14T23:54:04.294Z,21.40
2019-02-14T23:56:30.237Z,21.40
2019-02-14T23:58:56.179Z,21.40
